Time,TemperatureF,DewpointF,PressureIn,WindDirection,WindDirectionDegrees,WindSpeedMPH,WindSpeedGustMPH,Humidity,HourlyPrecipIn,Conditions,Clouds,dailyrainin,SoftwareType,DateUTC
2013-02-08 00:00:00,26.0,14.0,30.54,East,90,5.0,7.0,60,0.00,,,0.00,Weather View 32 v70,2013-02-08 05:00:00,
2013-02-08 00:01:00,26.0,14.0,30.54,ESE,112,2.0,8.0,60,0.00,,,0.00,Weather View 32 v70,2013-02-08 05:01:00,
2013-02-08 00:06:00,26.0,13.6,30.54,ENE,67,6.0,9.0,59,0.00,,,0.00,Weather View 32 v70,2013-02-08 05:06:00,
2013-02-08 00:11:00,26.0,14.0,30.53,NE,45,6.0,9.0,60,0.00,,,0.00,Weather View 32 v70,2013-02-08 05:11:00,
2013-02-08 00:16:00,26.0,14.0,30.53,ENE,67,4.0,10.0,60,0.00,,,0.00,Weather View 32 v70,2013-02-08 05:16:00,
2013-02-08 00:21:00,26.0,14.4,30.53,North,360,4.0,10.0,61,0.00,,,0.00,Weather View 32 v70,2013-02-08 05:21:00,
2013-02-08 00:26:00,26.0,14.8,30.53,ENE,67,4.0,10.0,62,0.00,,,0.00,Weather View 32 v70,2013-02-08 05:26:00,
2013-02-08 00:31:00,26.0,15.5,30.52,ENE,67,5.0,10.0,64,0.00,,,0.00,Weather View 32 v70,2013-02-08 05:31:00,
2013-02-08 00:36:00,26.0,15.5,30.52,NNE,22,0.0,10.0,64,0.00,,,0.00,Weather View 32 v70,2013-02-08 05:36:00,
2013-02-08 00:41:00,26.0,15.5,30.52,NE,45,3.0,10.0,64,0.00,,,0.00,Weather View 32 v70,2013-02-08 05:41:00,
2013-02-08 00:46:00,26.0,16.2,30.52,ESE,112,3.0,10.0,66,0.00,,,0.00,Weather View 32 v70,2013-02-08 05:46:00,
2013-02-08 00:51:00,26.0,16.2,30.52,East,90,3.0,10.0,66,0.00,,,0.00,Weather View 32 v70,2013-02-08 05:51:00,
2013-02-08 00:56:00,26.0,16.2,30.52,East,90,6.0,10.0,66,0.00,,,0.00,Weather View 32 v70,2013-02-08 05:56:00,
2013-02-08 01:01:00,26.0,15.8,30.50,SE,135,6.0,10.0,65,0.00,,,0.00,Weather View 32 v70,2013-02-08 06:01:00,
2013-02-08 01:06:00,26.0,15.5,30.50,ESE,112,0.0,10.0,64,0.00,,,0.00,Weather View 32 v70,2013-02-08 06:06:00,
2013-02-08 01:11:00,26.0,15.5,30.50,SE,135,5.0,10.0,64,0.00,,,0.00,Weather View 32 v70,2013-02-08 06:11:00,
2013-02-08 01:16:00,26.0,14.4,30.50,East,90,3.0,10.0,61,0.00,,,0.00,Weather View 32 v70,2013-02-08 06:16:00,
2013-02-08 01:21:00,26.0,13.6,30.50,ESE,112,3.0,10.0,59,0.00,,,0.00,Weather View 32 v70,2013-02-08 06:21:00,
2013-02-08 01:26:00,26.0,14.4,30.50,ENE,67,6.0,10.0,61,0.00,,,0.00,Weather View 32 v70,2013-02-08 06:26:00,
2013-02-08 01:31:00,26.0,14.4,30.50,ENE,67,6.0,10.0,61,0.00,,,0.00,Weather View 32 v70,2013-02-08 06:31:00,
2013-02-08 01:36:00,26.0,12.8,30.50,NE,45,5.0,10.0,57,0.00,,,0.00,Weather View 32 v70,2013-02-08 06:36:00,
2013-02-08 01:41:00,26.0,12.8,30.50,ESE,112,2.0,10.0,57,0.00,,,0.00,Weather View 32 v70,2013-02-08 06:41:00,
2013-02-08 01:46:00,26.0,12.8,30.50,ENE,67,6.0,10.0,57,0.00,,,0.00,Weather View 32 v70,2013-02-08 06:46:00,
2013-02-08 01:51:00,26.0,12.4,30.50,ENE,67,2.0,10.0,56,0.00,,,0.00,Weather View 32 v70,2013-02-08 06:51:00,
2013-02-08 01:56:00,26.0,12.0,30.50,NE,45,1.0,10.0,55,0.00,,,0.00,Weather View 32 v70,2013-02-08 06:56:00,
2013-02-08 02:01:00,26.0,11.2,30.50,ENE,67,4.0,10.0,53,0.00,,,0.00,Weather View 32 v70,2013-02-08 07:01:00,
2013-02-08 02:06:00,26.0,10.3,30.50,ESE,112,1.0,9.0,51,0.00,,,0.00,Weather View 32 v70,2013-02-08 07:06:00,
2013-02-08 02:11:00,26.0,10.8,30.49,ENE,67,6.0,9.0,52,0.00,,,0.00,Weather View 32 v70,2013-02-08 07:11:00,
2013-02-08 02:16:00,26.0,10.3,30.49,ENE,67,4.0,9.0,51,0.00,,,0.00,Weather View 32 v70,2013-02-08 07:16:00,
2013-02-08 02:21:00,26.0,10.3,30.49,NE,45,2.0,9.0,51,0.00,,,0.00,Weather View 32 v70,2013-02-08 07:21:00,
2013-02-08 02:26:00,26.0,10.8,30.49,East,90,6.0,9.0,52,0.00,,,0.00,Weather View 32 v70,2013-02-08 07:26:00,
2013-02-08 02:31:00,26.0,12.0,30.48,SE,135,3.0,9.0,55,0.00,,,0.00,Weather View 32 v70,2013-02-08 07:31:00,
2013-02-08 02:36:00,26.0,11.6,30.48,East,90,5.0,9.0,54,0.00,,,0.00,Weather View 32 v70,2013-02-08 07:36:00,
2013-02-08 02:41:00,26.0,10.8,30.48,ENE,67,4.0,10.0,52,0.00,,,0.00,Weather View 32 v70,2013-02-08 07:41:00,
2013-02-08 02:46:00,26.0,10.8,30.48,East,90,5.0,10.0,52,0.00,,,0.00,Weather View 32 v70,2013-02-08 07:46:00,
2013-02-08 02:51:00,26.0,11.2,30.48,East,90,5.0,10.0,53,0.00,,,0.00,Weather View 32 v70,2013-02-08 07:51:00,
2013-02-08 02:56:00,26.0,12.0,30.48,ENE,67,2.0,10.0,55,0.00,,,0.00,Weather View 32 v70,2013-02-08 07:56:00,
2013-02-08 03:01:00,26.0,12.8,30.47,SE,135,2.0,10.0,57,0.00,,,0.00,Weather View 32 v70,2013-02-08 08:01:00,
2013-02-08 03:06:00,26.0,13.6,30.47,SE,135,4.0,10.0,59,0.00,,,0.00,Weather View 32 v70,2013-02-08 08:06:00,
2013-02-08 03:11:00,26.0,14.4,30.46,ENE,67,4.0,10.0,61,0.00,,,0.00,Weather View 32 v70,2013-02-08 08:11:00,
2013-02-08 03:16:00,26.0,15.5,30.46,ESE,112,2.0,10.0,64,0.00,,,0.00,Weather View 32 v70,2013-02-08 08:16:00,
2013-02-08 03:21:00,26.0,15.1,30.46,ENE,67,4.0,10.0,63,0.00,,,0.00,Weather View 32 v70,2013-02-08 08:21:00,
2013-02-08 03:26:00,26.0,15.8,30.46,ENE,67,7.0,10.0,65,0.00,,,0.00,Weather View 32 v70,2013-02-08 08:26:00,
2013-02-08 03:31:00,26.0,16.5,30.46,ESE,112,4.0,10.0,67,0.00,,,0.00,Weather View 32 v70,2013-02-08 08:31:00,
2013-02-08 03:36:00,26.0,16.9,30.46,East,90,3.0,10.0,68,0.00,,,0.00,Weather View 32 v70,2013-02-08 08:36:00,
2013-02-08 03:41:00,26.0,17.2,30.45,NE,45,4.0,9.0,69,0.00,,,0.00,Weather View 32 v70,2013-02-08 08:41:00,
2013-02-08 03:46:00,26.0,17.6,30.45,East,90,1.0,9.0,70,0.00,,,0.00,Weather View 32 v70,2013-02-08 08:46:00,
2013-02-08 03:51:00,26.0,17.9,30.45,East,90,4.0,9.0,71,0.00,,,0.00,Weather View 32 v70,2013-02-08 08:51:00,
2013-02-08 03:56:00,26.0,18.2,30.45,ENE,67,1.0,9.0,72,0.00,,,0.00,Weather View 32 v70,2013-02-08 08:56:00,
2013-02-08 04:01:00,26.0,18.2,30.44,NE,45,3.0,9.0,72,0.00,,,0.00,Weather View 32 v70,2013-02-08 09:01:00,
2013-02-08 04:06:00,25.0,17.2,30.44,ENE,67,6.0,9.0,72,0.00,,,0.00,Weather View 32 v70,2013-02-08 09:06:00,
2013-02-08 04:11:00,25.0,17.6,30.44,East,90,3.0,9.0,73,0.00,,,0.00,Weather View 32 v70,2013-02-08 09:11:00,
2013-02-08 04:16:00,25.0,17.6,30.44,ESE,112,6.0,9.0,73,0.00,,,0.00,Weather View 32 v70,2013-02-08 09:16:00,
2013-02-08 04:21:00,25.0,17.9,30.43,ENE,67,6.0,9.0,74,0.00,,,0.00,Weather View 32 v70,2013-02-08 09:21:00,
2013-02-08 04:26:00,25.0,17.9,30.43,NE,45,6.0,9.0,74,0.00,,,0.00,Weather View 32 v70,2013-02-08 09:26:00,
2013-02-08 04:31:00,25.0,18.2,30.42,ENE,67,7.0,9.0,75,0.00,,,0.00,Weather View 32 v70,2013-02-08 09:31:00,
2013-02-08 04:36:00,26.0,20.4,30.42,East,90,4.0,9.0,79,0.00,,,0.00,Weather View 32 v70,2013-02-08 09:36:00,
2013-02-08 04:41:00,26.0,20.1,30.42,ENE,67,6.0,9.0,78,0.00,,,0.00,Weather View 32 v70,2013-02-08 09:41:00,
2013-02-08 04:46:00,26.0,20.4,30.42,NE,45,3.0,9.0,79,0.00,,,0.00,Weather View 32 v70,2013-02-08 09:46:00,
2013-02-08 04:51:00,26.0,20.7,30.42,ENE,67,1.0,9.0,80,0.00,,,0.00,Weather View 32 v70,2013-02-08 09:51:00,
2013-02-08 04:56:00,26.0,20.4,30.42,NE,45,6.0,9.0,79,0.00,,,0.00,Weather View 32 v70,2013-02-08 09:56:00,
2013-02-08 05:01:00,26.0,21.3,30.42,ENE,67,4.0,9.0,82,0.00,,,0.00,Weather View 32 v70,2013-02-08 10:01:00,
2013-02-08 05:06:00,26.0,21.3,30.42,NE,45,3.0,9.0,82,0.00,,,0.00,Weather View 32 v70,2013-02-08 10:06:00,
2013-02-08 05:11:00,26.0,21.5,30.42,NE,45,6.0,9.0,83,0.00,,,0.00,Weather View 32 v70,2013-02-08 10:11:00,
2013-02-08 05:16:00,26.0,21.5,30.42,ENE,67,3.0,9.0,83,0.00,,,0.00,Weather View 32 v70,2013-02-08 10:16:00,
2013-02-08 05:21:00,26.0,21.8,30.41,NE,45,2.0,9.0,84,0.00,,,0.00,Weather View 32 v70,2013-02-08 10:21:00,
2013-02-08 05:26:00,26.0,21.5,30.41,NE,45,7.0,9.0,83,0.00,,,0.00,Weather View 32 v70,2013-02-08 10:26:00,
2013-02-08 05:31:00,26.0,21.5,30.40,NE,45,6.0,9.0,83,0.00,,,0.00,Weather View 32 v70,2013-02-08 10:31:00,
2013-02-08 05:36:00,26.0,21.0,30.40,ENE,67,2.0,10.0,81,0.00,,,0.00,Weather View 32 v70,2013-02-08 10:36:00,
2013-02-08 05:41:00,26.0,21.0,30.40,NNE,22,6.0,10.0,81,0.00,,,0.00,Weather View 32 v70,2013-02-08 10:41:00,
2013-02-08 05:46:00,26.0,21.0,30.40,NE,45,7.0,10.0,81,0.00,,,0.00,Weather View 32 v70,2013-02-08 10:46:00,
2013-02-08 05:51:00,26.0,21.3,30.40,NNE,22,6.0,10.0,82,0.00,,,0.00,Weather View 32 v70,2013-02-08 10:51:00,
2013-02-08 05:56:00,26.0,21.5,30.40,NE,45,6.0,10.0,83,0.00,,,0.00,Weather View 32 v70,2013-02-08 10:56:00,
2013-02-08 06:01:00,26.0,21.5,30.39,NE,45,6.0,12.0,83,0.00,,,0.00,Weather View 32 v70,2013-02-08 11:01:00,
2013-02-08 06:06:00,26.0,21.8,30.39,NE,45,5.0,12.0,84,0.00,,,0.00,Weather View 32 v70,2013-02-08 11:06:00,
2013-02-08 06:11:00,26.0,21.8,30.38,NE,45,5.0,12.0,84,0.00,,,0.00,Weather View 32 v70,2013-02-08 11:11:00,
2013-02-08 06:16:00,26.0,22.1,30.38,ENE,67,6.0,12.0,85,0.00,,,0.00,Weather View 32 v70,2013-02-08 11:16:00,
2013-02-08 06:21:00,26.0,22.1,30.38,NE,45,6.0,12.0,85,0.00,,,0.00,Weather View 32 v70,2013-02-08 11:21:00,
2013-02-08 06:26:00,26.0,22.7,30.38,NNE,22,5.0,12.0,87,0.00,,,0.00,Weather View 32 v70,2013-02-08 11:26:00,
2013-02-08 06:31:00,26.0,22.4,30.38,ENE,67,5.0,12.0,86,0.00,,,0.00,Weather View 32 v70,2013-02-08 11:31:00,
2013-02-08 06:36:00,26.0,22.4,30.38,ENE,67,4.0,12.0,86,0.00,,,0.00,Weather View 32 v70,2013-02-08 11:36:00,
2013-02-08 06:41:00,26.0,22.4,30.38,NE,45,6.0,12.0,86,0.00,,,0.00,Weather View 32 v70,2013-02-08 11:41:00,
2013-02-08 06:46:00,26.0,22.4,30.38,NE,45,4.0,12.0,86,0.00,,,0.00,Weather View 32 v70,2013-02-08 11:46:00,
2013-02-08 06:51:00,26.0,22.4,30.37,NE,45,7.0,12.0,86,0.00,,,0.00,Weather View 32 v70,2013-02-08 11:51:00,
2013-02-08 06:56:00,26.0,22.7,30.37,NE,45,6.0,12.0,87,0.00,,,0.00,Weather View 32 v70,2013-02-08 11:56:00,
2013-02-08 07:01:00,26.0,22.7,30.37,East,90,6.0,10.0,87,0.00,,,0.00,Weather View 32 v70,2013-02-08 12:01:00,
2013-02-08 07:06:00,26.0,22.7,30.37,NE,45,6.0,10.0,87,0.00,,,0.00,Weather View 32 v70,2013-02-08 12:06:00,
2013-02-08 07:11:00,27.0,23.6,30.36,NE,45,7.0,10.0,87,0.00,,,0.00,Weather View 32 v70,2013-02-08 12:11:00,
2013-02-08 07:16:00,27.0,23.6,30.36,NE,45,5.0,10.0,87,0.00,,,0.00,Weather View 32 v70,2013-02-08 12:16:00,
2013-02-08 07:22:00,27.0,23.6,30.36,NE,45,6.0,10.0,87,0.00,,,0.00,Weather View 32 v70,2013-02-08 12:22:00,
2013-02-08 07:27:00,27.0,23.9,30.36,NE,45,4.0,10.0,88,0.00,,,0.00,Weather View 32 v70,2013-02-08 12:27:00,
2013-02-08 07:32:00,27.0,23.6,30.35,NE,45,7.0,12.0,87,0.00,,,0.00,Weather View 32 v70,2013-02-08 12:32:00,
2013-02-08 07:37:00,27.0,23.9,30.35,ESE,112,5.0,12.0,88,0.00,,,0.00,Weather View 32 v70,2013-02-08 12:37:00,
2013-02-08 07:42:00,27.0,23.9,30.35,NNE,22,5.0,12.0,88,0.00,,,0.00,Weather View 32 v70,2013-02-08 12:42:00,
2013-02-08 07:47:00,27.0,23.9,30.35,NNE,22,6.0,12.0,88,0.00,,,0.00,Weather View 32 v70,2013-02-08 12:47:00,
2013-02-08 07:52:00,27.0,23.9,30.34,North,360,5.0,12.0,88,0.00,,,0.00,Weather View 32 v70,2013-02-08 12:52:00,
2013-02-08 07:57:00,27.0,23.9,30.34,ENE,67,3.0,12.0,88,0.00,,,0.00,Weather View 32 v70,2013-02-08 12:57:00,
2013-02-08 08:02:00,27.0,23.9,30.34,ENE,67,9.0,12.0,88,0.00,,,0.00,Weather View 32 v70,2013-02-08 13:02:00,
2013-02-08 08:07:00,27.0,24.2,30.34,NE,45,3.0,12.0,89,0.00,,,0.00,Weather View 32 v70,2013-02-08 13:07:00,
2013-02-08 08:12:00,27.0,24.2,30.34,NE,45,6.0,12.0,89,0.00,,,0.00,Weather View 32 v70,2013-02-08 13:12:00,
2013-02-08 08:17:00,27.0,24.5,30.34,NNE,22,3.0,12.0,90,0.00,,,0.00,Weather View 32 v70,2013-02-08 13:17:00,
2013-02-08 08:22:00,27.0,24.5,30.34,NE,45,4.0,12.0,90,0.00,,,0.00,Weather View 32 v70,2013-02-08 13:22:00,
2013-02-08 08:27:00,28.0,25.4,30.34,ENE,67,4.0,12.0,90,0.00,,,0.00,Weather View 32 v70,2013-02-08 13:27:00,
2013-02-08 08:32:00,28.0,25.4,30.32,ENE,67,6.0,12.0,90,0.00,,,0.00,Weather View 32 v70,2013-02-08 13:32:00,
2013-02-08 08:37:00,28.0,25.7,30.32,ENE,67,6.0,12.0,91,0.00,,,0.00,Weather View 32 v70,2013-02-08 13:37:00,
2013-02-08 08:42:00,28.0,26.8,30.32,NE,45,3.0,12.0,95,0.00,,,0.00,Weather View 32 v70,2013-02-08 13:42:00,
2013-02-08 08:47:00,27.0,26.5,30.32,ENE,67,5.0,12.0,98,0.00,,,0.00,Weather View 32 v70,2013-02-08 13:47:00,
2013-02-08 08:52:00,28.0,28.0,30.32,NE,45,7.0,12.0,100,0.00,,,0.00,Weather View 32 v70,2013-02-08 13:52:00,
2013-02-08 08:57:00,27.0,27.0,30.32,East,90,6.0,12.0,100,0.00,,,0.00,Weather View 32 v70,2013-02-08 13:57:00,
2013-02-08 09:02:00,28.0,28.0,30.31,East,90,3.0,12.0,100,0.00,,,0.00,Weather View 32 v70,2013-02-08 14:02:00,
2013-02-08 09:07:00,28.0,28.0,30.31,NE,45,7.0,10.0,100,0.00,,,0.00,Weather View 32 v70,2013-02-08 14:07:00,
2013-02-08 09:12:00,28.0,28.0,30.31,East,90,3.0,10.0,100,0.00,,,0.00,Weather View 32 v70,2013-02-08 14:12:00,
2013-02-08 09:17:00,28.0,28.0,30.31,NE,45,2.0,10.0,100,0.00,,,0.00,Weather View 32 v70,2013-02-08 14:17:00,
2013-02-08 09:22:00,28.0,28.0,30.30,NE,45,8.0,10.0,100,0.00,,,0.00,Weather View 32 v70,2013-02-08 14:22:00,
2013-02-08 09:27:00,28.0,28.0,30.30,NNE,22,7.0,11.0,100,0.00,,,0.00,Weather View 32 v70,2013-02-08 14:27:00,
2013-02-08 09:32:00,28.0,28.0,30.29,NE,45,7.0,12.0,100,0.00,,,0.00,Weather View 32 v70,2013-02-08 14:32:00,
2013-02-08 09:37:00,29.0,29.0,30.29,East,90,5.0,12.0,100,0.00,,,0.00,Weather View 32 v70,2013-02-08 14:37:00,
2013-02-08 09:42:00,29.0,29.0,30.29,NNE,22,2.0,12.0,100,0.00,,,0.00,Weather View 32 v70,2013-02-08 14:42:00,
2013-02-08 09:47:00,29.0,29.0,30.29,East,90,7.0,12.0,100,0.00,,,0.00,Weather View 32 v70,2013-02-08 14:47:00,
2013-02-08 09:52:00,29.0,29.0,30.28,East,90,5.0,12.0,100,0.00,,,0.00,Weather View 32 v70,2013-02-08 14:52:00,
2013-02-08 09:57:00,29.0,29.0,30.28,NE,45,5.0,12.0,100,0.00,,,0.00,Weather View 32 v70,2013-02-08 14:57:00,
2013-02-08 10:02:00,28.0,28.0,30.28,East,90,6.0,12.0,100,0.00,,,0.00,Weather View 32 v70,2013-02-08 15:02:00,
2013-02-08 10:07:00,28.0,28.0,30.28,ENE,67,10.0,12.0,100,0.00,,,0.00,Weather View 32 v70,2013-02-08 15:07:00,
2013-02-08 10:12:00,29.0,29.0,30.27,NE,45,2.0,12.0,100,0.00,,,0.00,Weather View 32 v70,2013-02-08 15:12:00,
2013-02-08 10:17:00,29.0,29.0,30.27,NE,45,7.0,12.0,100,0.00,,,0.00,Weather View 32 v70,2013-02-08 15:17:00,
2013-02-08 10:22:00,29.0,29.0,30.27,East,90,3.0,12.0,100,0.00,,,0.00,Weather View 32 v70,2013-02-08 15:22:00,
2013-02-08 10:27:00,29.0,29.0,30.27,NE,45,7.0,12.0,100,0.00,,,0.00,Weather View 32 v70,2013-02-08 15:27:00,
2013-02-08 10:32:00,29.0,29.0,30.26,ENE,67,12.0,14.0,100,0.00,,,0.00,Weather View 32 v70,2013-02-08 15:32:00,
2013-02-08 10:37:00,29.0,29.0,30.26,NE,45,5.0,14.0,100,0.00,,,0.00,Weather View 32 v70,2013-02-08 15:37:00,
2013-02-08 10:42:00,29.0,29.0,30.25,ESE,112,7.0,14.0,100,0.00,,,0.00,Weather View 32 v70,2013-02-08 15:42:00,
2013-02-08 10:47:00,29.0,29.0,30.25,East,90,6.0,14.0,100,0.00,,,0.00,Weather View 32 v70,2013-02-08 15:47:00,
2013-02-08 10:52:00,29.0,29.0,30.24,NNE,22,7.0,14.0,100,0.00,,,0.00,Weather View 32 v70,2013-02-08 15:52:00,
2013-02-08 10:57:00,29.0,29.0,30.24,NE,45,7.0,14.0,100,0.00,,,0.00,Weather View 32 v70,2013-02-08 15:57:00,
2013-02-08 11:02:00,29.0,29.0,30.23,NE,45,4.0,14.0,100,0.00,,,0.00,Weather View 32 v70,2013-02-08 16:02:00,
2013-02-08 11:07:00,29.0,29.0,30.23,ENE,67,8.0,14.0,100,0.00,,,0.00,Weather View 32 v70,2013-02-08 16:07:00,
2013-02-08 11:12:00,29.0,29.0,30.23,ENE,67,6.0,14.0,100,0.00,,,0.00,Weather View 32 v70,2013-02-08 16:12:00,
2013-02-08 11:17:00,29.0,29.0,30.23,ENE,67,6.0,14.0,100,0.00,,,0.00,Weather View 32 v70,2013-02-08 16:17:00,
2013-02-08 11:22:00,29.0,29.0,30.22,East,90,2.0,14.0,100,0.00,,,0.00,Weather View 32 v70,2013-02-08 16:22:00,
2013-02-08 11:27:00,29.0,29.0,30.22,ENE,67,7.0,14.0,100,0.00,,,0.00,Weather View 32 v70,2013-02-08 16:27:00,
2013-02-08 11:32:00,29.0,29.0,30.21,NNE,22,3.0,13.0,100,0.00,,,0.00,Weather View 32 v70,2013-02-08 16:32:00,
2013-02-08 11:37:00,29.0,29.0,30.21,NE,45,6.0,13.0,100,0.00,,,0.00,Weather View 32 v70,2013-02-08 16:37:00,
2013-02-08 11:42:00,29.0,29.0,30.19,NE,45,2.0,13.0,100,0.00,,,0.00,Weather View 32 v70,2013-02-08 16:42:00,
2013-02-08 11:47:00,29.0,29.0,30.19,East,90,5.0,13.0,100,0.00,,,0.00,Weather View 32 v70,2013-02-08 16:47:00,
2013-02-08 11:52:00,29.0,29.0,30.18,ENE,67,7.0,13.0,100,0.00,,,0.00,Weather View 32 v70,2013-02-08 16:52:00,
2013-02-08 11:57:00,29.0,29.0,30.18,North,360,7.0,15.0,100,0.00,,,0.00,Weather View 32 v70,2013-02-08 16:57:00,
2013-02-08 12:02:00,29.0,29.0,30.17,NE,45,9.0,15.0,100,0.00,,,0.00,Weather View 32 v70,2013-02-08 17:02:00,
2013-02-08 12:07:00,29.0,29.0,30.17,NE,45,4.0,15.0,100,0.00,,,0.00,Weather View 32 v70,2013-02-08 17:07:00,
2013-02-08 12:12:00,29.0,29.0,30.16,ENE,67,6.0,15.0,100,0.00,,,0.00,Weather View 32 v70,2013-02-08 17:12:00,
2013-02-08 12:17:00,29.0,29.0,30.16,ENE,67,8.0,15.0,100,0.00,,,0.00,Weather View 32 v70,2013-02-08 17:17:00,
2013-02-08 12:22:00,29.0,29.0,30.15,NE,45,5.0,15.0,100,0.00,,,0.00,Weather View 32 v70,2013-02-08 17:22:00,
2013-02-08 12:27:00,29.0,29.0,30.15,ENE,67,8.0,15.0,100,0.00,,,0.00,Weather View 32 v70,2013-02-08 17:27:00,
2013-02-08 12:32:00,29.0,29.0,30.15,NE,45,9.0,15.0,100,0.00,,,0.00,Weather View 32 v70,2013-02-08 17:32:00,
2013-02-08 12:37:00,29.0,29.0,30.15,ENE,67,7.0,15.0,100,0.00,,,0.00,Weather View 32 v70,2013-02-08 17:37:00,
2013-02-08 12:42:00,29.0,29.0,30.14,ENE,67,10.0,15.0,100,0.00,,,0.00,Weather View 32 v70,2013-02-08 17:42:00,
2013-02-08 12:47:00,29.0,29.0,30.14,NE,45,6.0,15.0,100,0.00,,,0.00,Weather View 32 v70,2013-02-08 17:47:00,
2013-02-08 12:52:00,29.0,29.0,30.13,East,90,9.0,15.0,100,0.00,,,0.00,Weather View 32 v70,2013-02-08 17:52:00,
2013-02-08 12:57:00,29.0,29.0,30.13,ENE,67,9.0,16.0,100,0.00,,,0.00,Weather View 32 v70,2013-02-08 17:57:00,
2013-02-08 13:02:00,29.0,29.0,30.12,North,360,9.0,16.0,100,0.00,,,0.00,Weather View 32 v70,2013-02-08 18:02:00,
2013-02-08 13:15:00,29.0,29.0,30.11,East,90,5.0,16.0,100,0.00,,,0.00,Weather View 32 v70,2013-02-08 18:15:00,
2013-02-08 13:20:00,29.0,29.0,30.09,ENE,67,7.0,16.0,100,0.00,,,0.00,Weather View 32 v70,2013-02-08 18:20:00,
2013-02-08 13:25:00,29.0,29.0,30.09,ENE,67,6.0,16.0,100,0.00,,,0.00,Weather View 32 v70,2013-02-08 18:25:00,
2013-02-08 13:30:00,29.0,29.0,30.08,NNE,22,7.0,16.0,100,0.00,,,0.00,Weather View 32 v70,2013-02-08 18:30:00,
2013-02-08 13:35:00,29.0,29.0,30.08,NNE,22,7.0,16.0,100,0.00,,,0.00,Weather View 32 v70,2013-02-08 18:35:00,
2013-02-08 13:40:00,29.0,29.0,30.07,NE,45,9.0,16.0,100,0.00,,,0.00,Weather View 32 v70,2013-02-08 18:40:00,
2013-02-08 13:45:00,30.0,30.0,30.07,NNE,22,10.0,16.0,100,0.00,,,0.00,Weather View 32 v70,2013-02-08 18:45:00,
2013-02-08 13:50:00,30.0,30.0,30.05,ESE,112,4.0,16.0,100,0.00,,,0.00,Weather View 32 v70,2013-02-08 18:50:00,
2013-02-08 13:55:00,30.0,30.0,30.05,East,90,9.0,16.0,100,0.00,,,0.00,Weather View 32 v70,2013-02-08 18:55:00,
2013-02-08 13:56:00,30.0,30.0,30.05,NE,45,10.0,16.0,100,0.00,,,0.00,Weather View 32 v70,2013-02-08 18:56:00,
2013-02-08 13:57:00,30.0,30.0,30.05,ENE,67,8.0,16.0,100,0.00,,,0.00,Weather View 32 v70,2013-02-08 18:57:00,
2013-02-08 13:58:00,30.0,30.0,30.05,North,360,10.0,16.0,100,0.00,,,0.00,Weather View 32 v70,2013-02-08 18:58:00,
2013-02-08 13:59:00,30.0,30.0,30.04,NNE,22,10.0,16.0,100,0.00,,,0.00,Weather View 32 v70,2013-02-08 18:59:00,
2013-02-08 14:00:00,30.0,30.0,30.04,NE,45,12.0,16.0,100,0.00,,,0.00,Weather View 32 v70,2013-02-08 19:00:00,
2013-02-08 14:01:00,30.0,30.0,30.04,NE,45,9.0,16.0,100,0.00,,,0.00,Weather View 32 v70,2013-02-08 19:01:00,
2013-02-08 14:02:00,30.0,30.0,30.04,NE,45,8.0,16.0,100,0.00,,,0.00,Weather View 32 v70,2013-02-08 19:02:00,
2013-02-08 14:03:00,30.0,30.0,30.04,ENE,67,10.0,17.0,100,0.00,,,0.00,Weather View 32 v70,2013-02-08 19:03:00,
2013-02-08 14:04:00,30.0,30.0,30.04,NE,45,10.0,17.0,100,0.00,,,0.00,Weather View 32 v70,2013-02-08 19:04:00,
2013-02-08 14:05:00,30.0,30.0,30.04,NE,45,10.0,17.0,100,0.00,,,0.00,Weather View 32 v70,2013-02-08 19:05:00,
2013-02-08 14:14:00,30.0,30.0,30.04,NNE,22,10.0,17.0,100,0.00,,,0.00,Weather View 32 v70,2013-02-08 19:14:00,
2013-02-08 14:19:00,30.0,30.0,30.03,NE,45,7.0,17.0,100,0.00,,,0.00,Weather View 32 v70,2013-02-08 19:19:00,
2013-02-08 14:24:00,30.0,30.0,30.03,NE,45,7.0,17.0,100,0.00,,,0.00,Weather View 32 v70,2013-02-08 19:24:00,
2013-02-08 14:29:00,30.0,30.0,30.02,SSE,157,2.0,17.0,100,0.00,,,0.00,Weather View 32 v70,2013-02-08 19:29:00,
2013-02-08 14:34:00,30.0,30.0,30.02,NE,45,7.0,17.0,100,0.00,,,0.00,Weather View 32 v70,2013-02-08 19:34:00,
2013-02-08 14:39:00,30.0,30.0,30.01,East,90,3.0,17.0,100,0.00,,,0.00,Weather View 32 v70,2013-02-08 19:39:00,
2013-02-08 14:44:00,30.0,30.0,30.01,ENE,67,4.0,17.0,100,0.00,,,0.00,Weather View 32 v70,2013-02-08 19:44:00,
2013-02-08 14:49:00,30.0,30.0,30.00,NNE,22,6.0,17.0,100,0.00,,,0.00,Weather View 32 v70,2013-02-08 19:49:00,
2013-02-08 14:54:00,30.0,30.0,30.00,ENE,67,9.0,17.0,100,0.00,,,0.00,Weather View 32 v70,2013-02-08 19:54:00,
2013-02-08 14:59:00,30.0,30.0,29.99,ENE,67,7.0,17.0,100,0.00,,,0.00,Weather View 32 v70,2013-02-08 19:59:00,
2013-02-08 15:04:00,29.0,29.0,29.99,NE,45,9.0,16.0,100,0.00,,,0.00,Weather View 32 v70,2013-02-08 20:04:00,
2013-02-08 15:09:00,29.0,29.0,29.98,ENE,67,8.0,16.0,100,0.00,,,0.00,Weather View 32 v70,2013-02-08 20:09:00,
2013-02-08 15:14:00,29.0,29.0,29.98,North,360,7.0,16.0,100,0.00,,,0.00,Weather View 32 v70,2013-02-08 20:14:00,
2013-02-08 15:19:00,29.0,29.0,29.98,NNE,22,9.0,16.0,100,0.00,,,0.00,Weather View 32 v70,2013-02-08 20:19:00,
2013-02-08 15:24:00,29.0,29.0,29.98,NE,45,9.0,20.0,100,0.00,,,0.00,Weather View 32 v70,2013-02-08 20:24:00,
2013-02-08 15:29:00,29.0,29.0,29.97,NE,45,10.0,20.0,100,0.00,,,0.00,Weather View 32 v70,2013-02-08 20:29:00,
2013-02-08 15:34:00,29.0,29.0,29.97,NNW,337,6.0,20.0,100,0.00,,,0.00,Weather View 32 v70,2013-02-08 20:34:00,
2013-02-08 15:40:00,29.0,29.0,29.95,NE,45,10.0,20.0,100,0.00,,,0.00,Weather View 32 v70,2013-02-08 20:40:00,
2013-02-08 15:45:00,28.0,28.0,29.95,North,360,6.0,20.0,100,0.00,,,0.00,Weather View 32 v70,2013-02-08 20:45:00,
2013-02-08 15:50:00,28.0,28.0,29.95,NE,45,6.0,20.0,100,0.00,,,0.00,Weather View 32 v70,2013-02-08 20:50:00,
2013-02-08 15:55:00,28.0,28.0,29.95,NE,45,12.0,20.0,100,0.00,,,0.00,Weather View 32 v70,2013-02-08 20:55:00,
2013-02-08 16:00:00,28.0,28.0,29.95,NE,45,8.0,20.0,100,0.00,,,0.00,Weather View 32 v70,2013-02-08 21:00:00,
2013-02-08 16:05:00,28.0,28.0,29.95,NNW,337,4.0,20.0,100,0.00,,,0.00,Weather View 32 v70,2013-02-08 21:05:00,
2013-02-08 16:10:00,28.0,28.0,29.94,NE,45,10.0,20.0,100,0.00,,,0.00,Weather View 32 v70,2013-02-08 21:10:00,
2013-02-08 16:15:00,28.0,28.0,29.94,NE,45,8.0,20.0,100,0.00,,,0.00,Weather View 32 v70,2013-02-08 21:15:00,
2013-02-08 16:20:00,28.0,28.0,29.93,NNE,22,9.0,20.0,100,0.00,,,0.00,Weather View 32 v70,2013-02-08 21:20:00,
2013-02-08 16:25:00,27.0,27.0,29.93,ENE,67,9.0,20.0,100,0.00,,,0.00,Weather View 32 v70,2013-02-08 21:25:00,
2013-02-08 16:30:00,27.0,27.0,29.93,NE,45,8.0,24.0,100,0.00,,,0.00,Weather View 32 v70,2013-02-08 21:30:00,
2013-02-08 16:35:00,27.0,27.0,29.93,NNE,22,8.0,24.0,100,0.00,,,0.00,Weather View 32 v70,2013-02-08 21:35:00,
2013-02-08 16:40:00,27.0,27.0,29.93,North,360,13.0,24.0,100,0.00,,,0.00,Weather View 32 v70,2013-02-08 21:40:00,
2013-02-08 16:45:00,27.0,27.0,29.93,NNW,337,12.0,24.0,100,0.00,,,0.00,Weather View 32 v70,2013-02-08 21:45:00,
2013-02-08 16:50:00,27.0,27.0,29.92,NE,45,9.0,24.0,100,0.00,,,0.00,Weather View 32 v70,2013-02-08 21:50:00,
2013-02-08 16:55:00,27.0,27.0,29.92,SE,135,3.0,24.0,100,0.00,,,0.00,Weather View 32 v70,2013-02-08 21:55:00,
2013-02-08 17:00:00,27.0,27.0,29.92,NNE,22,10.0,27.0,100,0.00,,,0.00,Weather View 32 v70,2013-02-08 22:00:00,
2013-02-08 17:05:00,26.0,26.0,29.92,NNE,22,3.0,27.0,100,0.00,,,0.00,Weather View 32 v70,2013-02-08 22:05:00,
2013-02-08 17:10:00,26.0,26.0,29.92,NNE,22,14.0,27.0,100,0.00,,,0.00,Weather View 32 v70,2013-02-08 22:10:00,
2013-02-08 17:15:00,26.0,26.0,29.92,North,360,8.0,27.0,100,0.00,,,0.00,Weather View 32 v70,2013-02-08 22:15:00,
2013-02-08 17:20:00,26.0,26.0,29.92,North,360,9.0,27.0,100,0.00,,,0.00,Weather View 32 v70,2013-02-08 22:20:00,
2013-02-08 17:25:00,26.0,26.0,29.92,North,360,5.0,27.0,100,0.00,,,0.00,Weather View 32 v70,2013-02-08 22:25:00,
2013-02-08 17:30:00,26.0,26.0,29.91,NE,45,8.0,27.0,100,0.00,,,0.00,Weather View 32 v70,2013-02-08 22:30:00,
2013-02-08 17:35:00,26.0,26.0,29.91,NNE,22,6.0,27.0,100,0.00,,,0.00,Weather View 32 v70,2013-02-08 22:35:00,
2013-02-08 17:40:00,26.0,26.0,29.90,ENE,67,9.0,27.0,100,0.00,,,0.00,Weather View 32 v70,2013-02-08 22:40:00,
2013-02-08 17:45:00,26.0,26.0,29.90,NE,45,12.0,27.0,100,0.00,,,0.00,Weather View 32 v70,2013-02-08 22:45:00,
2013-02-08 17:50:00,26.0,26.0,29.90,ENE,67,10.0,27.0,100,0.00,,,0.00,Weather View 32 v70,2013-02-08 22:50:00,
2013-02-08 17:55:00,26.0,26.0,29.90,NE,45,17.0,27.0,100,0.00,,,0.00,Weather View 32 v70,2013-02-08 22:55:00,
2013-02-08 18:00:00,26.0,26.0,29.90,NNE,22,8.0,23.0,100,0.00,,,0.00,Weather View 32 v70,2013-02-08 23:00:00,
2013-02-08 18:05:00,26.0,26.0,29.90,NE,45,26.0,26.0,100,0.00,,,0.00,Weather View 32 v70,2013-02-08 23:05:00,
2013-02-08 18:10:00,26.0,26.0,29.89,NE,45,14.0,26.0,100,0.00,,,0.00,Weather View 32 v70,2013-02-08 23:10:00,
2013-02-08 18:15:00,26.0,26.0,29.89,North,360,6.0,26.0,100,0.00,,,0.00,Weather View 32 v70,2013-02-08 23:15:00,
2013-02-08 18:20:00,26.0,26.0,29.88,North,360,11.0,26.0,100,0.00,,,0.00,Weather View 32 v70,2013-02-08 23:20:00,
2013-02-08 18:25:00,26.0,26.0,29.88,NE,45,8.0,26.0,100,0.00,,,0.00,Weather View 32 v70,2013-02-08 23:25:00,
2013-02-08 18:30:00,25.0,25.0,29.87,NE,45,9.0,26.0,100,0.00,,,0.00,Weather View 32 v70,2013-02-08 23:30:00,
2013-02-08 18:35:00,25.0,25.0,29.87,NNW,337,7.0,26.0,100,0.00,,,0.00,Weather View 32 v70,2013-02-08 23:35:00,
2013-02-08 18:40:00,25.0,25.0,29.86,NE,45,7.0,26.0,100,0.00,,,0.00,Weather View 32 v70,2013-02-08 23:40:00,
2013-02-08 18:45:00,25.0,25.0,29.86,East,90,12.0,26.0,100,0.00,,,0.00,Weather View 32 v70,2013-02-08 23:45:00,
2013-02-08 18:50:00,25.0,25.0,29.85,NNE,22,10.0,26.0,100,0.00,,,0.00,Weather View 32 v70,2013-02-08 23:50:00,
2013-02-08 18:55:00,25.0,25.0,29.85,NE,45,8.0,26.0,100,0.00,,,0.00,Weather View 32 v70,2013-02-08 23:55:00,
2013-02-08 19:00:00,25.0,25.0,29.85,ENE,67,10.0,26.0,100,0.00,,,0.00,Weather View 32 v70,2013-02-09 00:00:00,
2013-02-08 19:05:00,25.0,25.0,29.85,NE,45,18.0,27.0,100,0.00,,,0.00,Weather View 32 v70,2013-02-09 00:05:00,
2013-02-08 19:10:00,25.0,25.0,29.84,ESE,112,3.0,27.0,100,0.00,,,0.00,Weather View 32 v70,2013-02-09 00:10:00,
2013-02-08 19:15:00,25.0,25.0,29.84,North,360,8.0,27.0,100,0.00,,,0.00,Weather View 32 v70,2013-02-09 00:15:00,
2013-02-08 19:20:00,25.0,25.0,29.84,North,360,7.0,27.0,100,0.00,,,0.00,Weather View 32 v70,2013-02-09 00:20:00,
2013-02-08 19:25:00,24.0,24.0,29.84,ENE,67,13.0,27.0,100,0.00,,,0.00,Weather View 32 v70,2013-02-09 00:25:00,
2013-02-08 19:30:00,24.0,24.0,29.83,NE,45,9.0,27.0,100,0.00,,,0.00,Weather View 32 v70,2013-02-09 00:30:00,
2013-02-08 19:35:00,24.0,24.0,29.83,NE,45,10.0,27.0,100,0.00,,,0.00,Weather View 32 v70,2013-02-09 00:35:00,
2013-02-08 19:40:00,24.0,24.0,29.83,NNE,22,13.0,27.0,100,0.00,,,0.00,Weather View 32 v70,2013-02-09 00:40:00,
2013-02-08 19:45:00,24.0,24.0,29.83,NE,45,13.0,27.0,100,0.00,,,0.00,Weather View 32 v70,2013-02-09 00:45:00,
2013-02-08 19:50:00,24.0,24.0,29.82,NNE,22,20.0,28.0,100,0.00,,,0.00,Weather View 32 v70,2013-02-09 00:50:00,
2013-02-08 19:55:00,24.0,24.0,29.82,North,360,10.0,28.0,100,0.00,,,0.00,Weather View 32 v70,2013-02-09 00:55:00,
2013-02-08 20:00:00,24.0,24.0,29.81,NW,315,17.0,28.0,100,0.00,,,0.00,Weather View 32 v70,2013-02-09 01:00:00,
2013-02-08 20:05:00,24.0,24.0,29.81,NE,45,11.0,28.0,100,0.00,,,0.00,Weather View 32 v70,2013-02-09 01:05:00,
2013-02-08 20:10:00,24.0,24.0,29.79,NNE,22,8.0,28.0,100,0.00,,,0.00,Weather View 32 v70,2013-02-09 01:10:00,
2013-02-08 20:15:00,24.0,24.0,29.79,NE,45,17.0,28.0,100,0.00,,,0.00,Weather View 32 v70,2013-02-09 01:15:00,
2013-02-08 20:20:00,24.0,24.0,29.79,NNE,22,11.0,28.0,100,0.00,,,0.00,Weather View 32 v70,2013-02-09 01:20:00,
2013-02-08 20:25:00,24.0,24.0,29.79,ENE,67,9.0,28.0,100,0.00,,,0.00,Weather View 32 v70,2013-02-09 01:25:00,
2013-02-08 20:30:00,24.0,24.0,29.79,NNE,22,7.0,28.0,100,0.00,,,0.00,Weather View 32 v70,2013-02-09 01:30:00,
2013-02-08 20:35:00,23.0,23.0,29.79,ENE,67,10.0,28.0,100,0.00,,,0.00,Weather View 32 v70,2013-02-09 01:35:00,
2013-02-08 20:40:00,23.0,23.0,29.79,NE,45,13.0,28.0,100,0.00,,,0.00,Weather View 32 v70,2013-02-09 01:40:00,
2013-02-08 20:45:00,23.0,23.0,29.79,NE,45,16.0,28.0,100,0.00,,,0.00,Weather View 32 v70,2013-02-09 01:45:00,
2013-02-08 20:50:00,23.0,23.0,29.79,North,360,9.0,28.0,100,0.00,,,0.00,Weather View 32 v70,2013-02-09 01:50:00,
2013-02-08 20:55:00,23.0,23.0,29.79,North,360,13.0,28.0,100,0.00,,,0.00,Weather View 32 v70,2013-02-09 01:55:00,
2013-02-08 21:00:00,22.0,22.0,29.78,North,360,13.0,28.0,100,0.00,,,0.00,Weather View 32 v70,2013-02-09 02:00:00,
2013-02-08 21:05:00,22.0,22.0,29.78,East,90,7.0,28.0,100,0.00,,,0.00,Weather View 32 v70,2013-02-09 02:05:00,
2013-02-08 21:10:00,22.0,22.0,29.78,ESE,112,9.0,28.0,100,0.00,,,0.00,Weather View 32 v70,2013-02-09 02:10:00,
2013-02-08 21:15:00,22.0,22.0,29.78,East,90,17.0,28.0,100,0.00,,,0.00,Weather View 32 v70,2013-02-09 02:15:00,
2013-02-08 21:20:00,22.0,22.0,29.77,North,360,7.0,29.0,100,0.00,,,0.00,Weather View 32 v70,2013-02-09 02:20:00,
2013-02-08 21:26:00,22.0,22.0,29.77,NNE,22,22.0,29.0,100,0.00,,,0.00,Weather View 32 v70,2013-02-09 02:26:00,
2013-02-08 21:31:00,22.0,22.0,29.78,NE,45,10.0,30.0,100,0.00,,,0.00,Weather View 32 v70,2013-02-09 02:31:00,
2013-02-08 21:36:00,22.0,22.0,29.78,NNE,22,15.0,30.0,100,0.00,,,0.00,Weather View 32 v70,2013-02-09 02:36:00,
2013-02-08 21:41:00,22.0,22.0,29.76,North,360,9.0,30.0,100,0.00,,,0.00,Weather View 32 v70,2013-02-09 02:41:00,
2013-02-08 21:46:00,21.0,21.0,29.76,ENE,67,16.0,30.0,100,0.00,,,0.00,Weather View 32 v70,2013-02-09 02:46:00,
2013-02-08 21:51:00,21.0,21.0,29.77,North,360,12.0,32.0,100,0.00,,,0.00,Weather View 32 v70,2013-02-09 02:51:00,
2013-02-08 21:56:00,21.0,21.0,29.77,North,360,15.0,32.0,100,0.00,,,0.00,Weather View 32 v70,2013-02-09 02:56:00,
2013-02-08 22:01:00,21.0,21.0,29.77,NE,45,15.0,32.0,100,0.00,,,0.00,Weather View 32 v70,2013-02-09 03:01:00,
2013-02-08 22:06:00,21.0,21.0,29.77,NE,45,13.0,32.0,100,0.00,,,0.00,Weather View 32 v70,2013-02-09 03:06:00,
2013-02-08 22:11:00,21.0,21.0,29.77,NE,45,10.0,32.0,100,0.00,,,0.00,Weather View 32 v70,2013-02-09 03:11:00,
2013-02-08 22:16:00,21.0,21.0,29.77,NE,45,25.0,32.0,100,0.00,,,0.00,Weather View 32 v70,2013-02-09 03:16:00,
2013-02-08 22:21:00,21.0,21.0,29.79,NNW,337,16.0,32.0,100,0.00,,,0.00,Weather View 32 v70,2013-02-09 03:21:00,
2013-02-08 22:26:00,21.0,21.0,29.79,NE,45,18.0,32.0,100,0.00,,,0.00,Weather View 32 v70,2013-02-09 03:26:00,
2013-02-08 22:31:00,21.0,21.0,29.78,North,360,15.0,32.0,100,0.00,,,0.00,Weather View 32 v70,2013-02-09 03:31:00,
2013-02-08 22:36:00,21.0,21.0,29.78,NNW,337,9.0,32.0,100,0.00,,,0.00,Weather View 32 v70,2013-02-09 03:36:00,
2013-02-08 22:41:00,21.0,21.0,29.79,NW,315,9.0,32.0,100,0.00,,,0.00,Weather View 32 v70,2013-02-09 03:41:00,
2013-02-08 22:46:00,21.0,21.0,29.79,NNE,22,12.0,34.0,100,0.00,,,0.00,Weather View 32 v70,2013-02-09 03:46:00,
2013-02-08 22:51:00,21.0,21.0,29.79,NNE,22,12.0,34.0,100,0.00,,,0.00,Weather View 32 v70,2013-02-09 03:51:00,
2013-02-08 22:56:00,21.0,21.0,29.79,NNE,22,19.0,34.0,100,0.00,,,0.00,Weather View 32 v70,2013-02-09 03:56:00,
2013-02-08 23:01:00,20.0,20.0,29.79,North,360,8.0,34.0,100,0.00,,,0.00,Weather View 32 v70,2013-02-09 04:01:00,
2013-02-08 23:06:00,20.0,20.0,29.79,East,90,15.0,34.0,100,0.00,,,0.00,Weather View 32 v70,2013-02-09 04:06:00,
2013-02-08 23:11:00,20.0,20.0,29.81,North,360,9.0,34.0,100,0.00,,,0.00,Weather View 32 v70,2013-02-09 04:11:00,
2013-02-08 23:16:00,20.0,20.0,29.81,NNE,22,9.0,34.0,100,0.00,,,0.00,Weather View 32 v70,2013-02-09 04:16:00,
2013-02-08 23:21:00,20.0,20.0,29.80,NNW,337,14.0,34.0,100,0.00,,,0.00,Weather View 32 v70,2013-02-09 04:21:00,
2013-02-08 23:26:00,20.0,20.0,29.80,North,360,12.0,34.0,100,0.00,,,0.00,Weather View 32 v70,2013-02-09 04:26:00,
2013-02-08 23:31:00,20.0,20.0,29.81,NNE,22,13.0,34.0,100,0.00,,,0.00,Weather View 32 v70,2013-02-09 04:31:00,
2013-02-08 23:36:00,20.0,20.0,29.81,NNE,22,8.0,34.0,100,0.00,,,0.00,Weather View 32 v70,2013-02-09 04:36:00,
2013-02-08 23:41:00,20.0,20.0,29.82,NE,45,11.0,34.0,100,0.00,,,0.00,Weather View 32 v70,2013-02-09 04:41:00,
2013-02-08 23:46:00,19.0,19.0,29.82,East,90,19.0,31.0,100,0.00,,,0.00,Weather View 32 v70,2013-02-09 04:46:00,
2013-02-08 23:51:00,19.0,19.0,29.83,North,360,6.0,31.0,100,0.00,,,0.00,Weather View 32 v70,2013-02-09 04:51:00,
2013-02-08 23:56:00,19.0,19.0,29.83,North,360,15.0,31.0,100,0.00,,,0.00,Weather View 32 v70,2013-02-09 04:56:00,